Time;durP1;ratioP1;P1;durP2;ratioP2;P2;SDS_P1;SDS_P2;PMS_P1;PMS_P2;Temp;Humidity;BMP_temperature;BMP_pressure;BME280_temperature;BME280_humidity;BME280_pressure;Samples;Min_cycle;Max_cycle;Signal;HPM_P1;HPM_P2
2024/01/29 00:01:56;;;;;;;9.50;7.83;;;;;;;1.69;100.00;99340.91;5034301;28;20213;-71
2024/01/29 00:04:22;;;;;;;11.33;8.03;;;;;;;1.70;100.00;99346.03;5033495;28;20210;-71
2024/01/29 00:06:49;;;;;;;11.30;7.90;;;;;;;1.73;100.00;99343.16;5033425;28;20210;-71
2024/01/29 00:09:15;;;;;;;9.80;7.60;;;;;;;1.68;100.00;99337.50;5033380;28;20214;-71
2024/01/29 00:11:41;;;;;;;10.50;8.43;;;;;;;1.70;100.00;99343.41;5033560;28;20206;-71
2024/01/29 00:14:08;;;;;;;12.43;8.27;;;;;;;1.70;100.00;99347.81;5033176;28;20264;-71
2024/01/29 00:16:34;;;;;;;11.40;7.50;;;;;;;1.68;100.00;99342.72;5033536;28;20210;-71
2024/01/29 00:19:01;;;;;;;10.13;7.90;;;;;;;1.61;100.00;99348.59;5033497;28;20212;-71
2024/01/29 00:21:27;;;;;;;9.70;8.07;;;;;;;1.62;100.00;99356.34;5033464;28;20209;-71
2024/01/29 00:23:53;;;;;;;10.83;7.67;;;;;;;1.53;100.00;99344.03;5034679;28;20568;-71
2024/01/29 00:26:20;;;;;;;11.93;8.30;;;;;;;1.53;100.00;99346.63;5037128;28;20230;-71
2024/01/29 00:28:46;;;;;;;8.50;7.30;;;;;;;1.51;100.00;99339.88;5037432;28;20216;-71
2024/01/29 00:31:14;;;;;;;10.37;8.13;;;;;;;1.47;100.00;99338.47;5037451;28;20217;-71
2024/01/29 00:33:40;;;;;;;10.93;7.90;;;;;;;1.41;100.00;99345.09;5037094;28;20230;-71
2024/01/29 00:36:07;;;;;;;11.90;8.07;;;;;;;1.39;100.00;99339.13;5037278;28;20257;-71
2024/01/29 00:38:33;;;;;;;10.30;8.10;;;;;;;1.33;100.00;99333.59;5037362;28;20209;-71
2024/01/29 00:40:59;;;;;;;13.67;8.20;;;;;;;1.22;100.00;99331.88;5037157;28;20217;-71
2024/01/29 00:43:26;;;;;;;9.47;7.57;;;;;;;1.34;100.00;99335.22;5037199;28;20225;-71
2024/01/29 00:45:52;;;;;;;14.07;8.43;;;;;;;1.30;100.00;99341.72;5037198;28;20207;-71
2024/01/29 00:48:20;;;;;;;12.23;8.70;;;;;;;1.34;100.00;99327.38;5037126;28;20213;-71
2024/01/29 00:50:47;;;;;;;11.63;8.87;;;;;;;1.40;100.00;99324.25;5037039;28;20212;-71
2024/01/29 00:53:13;;;;;;;12.10;8.60;;;;;;;1.54;100.00;99322.09;5036993;28;20226;-71
2024/01/29 00:55:40;;;;;;;13.13;8.20;;;;;;;1.54;100.00;99329.13;5036878;28;20228;-71
2024/01/29 00:58:06;;;;;;;9.93;7.77;;;;;;;1.54;100.00;99322.09;5036843;28;20225;-71
2024/01/29 01:00:32;;;;;;;11.37;7.77;;;;;;;1.51;100.00;99322.38;5036937;28;20202;-71
2024/01/29 01:02:59;;;;;;;11.40;8.60;;;;;;;1.53;100.00;99327.50;5036790;28;20222;-71
2024/01/29 01:05:25;;;;;;;10.53;8.43;;;;;;;1.46;100.00;99329.81;5037383;28;20206;-71
2024/01/29 01:07:51;;;;;;;9.17;7.20;;;;;;;1.42;100.00;99330.19;5036804;28;20201;-71
2024/01/29 01:10:18;;;;;;;8.57;7.60;;;;;;;1.38;100.00;99334.84;5036685;28;20209;-71
2024/01/29 01:12:44;;;;;;;12.10;8.00;;;;;;;1.32;100.00;99326.69;5036594;28;20233;-71
2024/01/29 01:15:11;;;;;;;11.60;8.50;;;;;;;1.37;100.00;99330.59;5036626;28;20222;-71
2024/01/29 01:17:37;;;;;;;10.73;7.90;;;;;;;1.33;100.00;99330.97;5036651;28;20206;-71
2024/01/29 01:20:05;;;;;;;11.30;7.70;;;;;;;1.30;100.00;99328.63;5036576;28;20206;-71
2024/01/29 01:22:32;;;;;;;12.30;7.70;;;;;;;1.27;100.00;99329.72;5036508;28;20226;-71
2024/01/29 01:24:58;;;;;;;10.97;8.47;;;;;;;1.27;100.00;99334.09;5036303;28;20221;-71
2024/01/29 01:27:25;;;;;;;11.23;8.43;;;;;;;1.26;100.00;99329.84;5036180;28;20196;-71
2024/01/29 01:29:51;;;;;;;11.60;8.33;;;;;;;1.38;100.00;99336.63;5036430;28;20202;-71
2024/01/29 01:32:18;;;;;;;11.40;8.40;;;;;;;1.35;100.00;99329.88;5036187;28;20599;-71
2024/01/29 01:34:44;;;;;;;9.20;8.10;;;;;;;1.33;100.00;99337.03;5035666;28;20616;-71
2024/01/29 01:37:10;;;;;;;11.13;8.27;;;;;;;1.30;100.00;99339.91;5035932;28;20680;-71
2024/01/29 01:39:37;;;;;;;11.17;8.03;;;;;;;1.38;100.00;99336.63;5036801;28;20220;-71
2024/01/29 01:42:04;;;;;;;9.60;7.97;;;;;;;1.18;100.00;99334.88;5036223;28;20209;-71
2024/01/29 01:44:31;;;;;;;8.83;7.40;;;;;;;1.24;100.00;99334.34;5036234;28;20214;-71
2024/01/29 01:46:57;;;;;;;12.80;8.70;;;;;;;1.31;100.00;99333.69;5035788;28;20676;-71
2024/01/29 01:49:24;;;;;;;11.10;8.63;;;;;;;1.35;100.00;99332.50;5036058;28;20202;-71
2024/01/29 01:51:50;;;;;;;11.83;8.27;;;;;;;1.37;100.00;99337.59;5035931;28;20206;-71
2024/01/29 01:54:18;;;;;;;14.87;8.63;;;;;;;1.32;100.00;99331.94;5035913;28;20236;-71
2024/01/29 01:56:45;;;;;;;10.60;8.63;;;;;;;1.35;100.00;99336.91;5035958;28;20205;-71
2024/01/29 01:59:12;;;;;;;12.90;8.77;;;;;;;1.53;100.00;99333.53;5035906;28;20212;-71
2024/01/29 02:01:39;;;;;;;11.23;8.27;;;;;;;1.42;100.00;99336.25;5035800;28;20206;-71
2024/01/29 02:04:06;;;;;;;10.00;8.40;;;;;;;1.43;100.00;99332.66;5035734;28;20228;-71
2024/01/29 02:06:32;;;;;;;10.77;8.27;;;;;;;1.40;100.00;99330.31;5035704;28;20227;-71
2024/01/29 02:09:01;;;;;;;9.53;8.27;;;;;;;1.49;100.00;99329.50;5035653;28;20218;-71
2024/01/29 02:11:27;;;;;;;10.37;8.03;;;;;;;1.46;100.00;99334.19;5035623;28;20206;-71
2024/01/29 02:13:53;;;;;;;12.73;8.37;;;;;;;1.35;100.00;99335.09;5035249;28;20237;-71
2024/01/29 02:16:20;;;;;;;14.80;8.73;;;;;;;1.30;100.00;99326.00;5035406;28;20226;-71
2024/01/29 02:18:46;;;;;;;10.27;8.40;;;;;;;1.33;100.00;99331.81;5035365;28;20205;-71
2024/01/29 02:21:13;;;;;;;10.80;8.40;;;;;;;1.33;100.00;99325.72;5035260;28;20228;-71
2024/01/29 02:23:44;;;;;;;11.47;8.77;;;;;;;1.35;100.00;99334.28;5035022;28;20284;-71
2024/01/29 02:26:10;;;;;;;10.23;8.23;;;;;;;1.33;100.00;99321.31;5035070;28;20214;-71
2024/01/29 02:28:36;;;;;;;10.37;8.60;;;;;;;1.29;100.00;99324.31;5035374;28;20216;-71
2024/01/29 02:31:03;;;;;;;10.93;8.20;;;;;;;1.12;100.00;99317.88;5035303;28;20209;-71
2024/01/29 02:33:30;;;;;;;11.37;8.10;;;;;;;1.06;100.00;99318.41;5035249;28;20225;-71
2024/01/29 02:35:56;;;;;;;10.53;8.40;;;;;;;1.12;100.00;99322.31;5034821;28;20723;-71
2024/01/29 02:38:23;;;;;;;8.80;7.67;;;;;;;1.11;100.00;99321.47;5035162;28;20206;-71
2024/01/29 02:40:49;;;;;;;9.73;8.17;;;;;;;1.10;100.00;99318.97;5035103;28;20214;-71
2024/01/29 02:43:16;;;;;;;11.87;8.23;;;;;;;1.11;100.00;99323.25;5035032;28;20221;-71
2024/01/29 02:45:42;;;;;;;10.97;8.33;;;;;;;1.06;100.00;99312.34;5034521;28;20204;-71
2024/01/29 02:48:08;;;;;;;12.53;8.93;;;;;;;1.13;100.00;99310.88;5034611;28;20202;-71
2024/01/29 02:50:35;;;;;;;12.67;8.57;;;;;;;1.26;100.00;99321.97;5034969;28;20208;-71
2024/01/29 02:53:01;;;;;;;13.67;8.00;;;;;;;1.38;100.00;99320.91;5034783;28;20221;-71
2024/01/29 02:55:27;;;;;;;10.47;7.80;;;;;;;1.39;100.00;99322.59;5034769;28;20229;-71
2024/01/29 02:57:54;;;;;;;10.37;8.07;;;;;;;1.34;100.00;99316.91;5034809;28;20202;-71
2024/01/29 03:00:20;;;;;;;9.10;7.50;;;;;;;1.35;100.00;99311.53;5034439;28;20205;-71
2024/01/29 03:02:47;;;;;;;9.87;7.20;;;;;;;1.49;100.00;99312.97;5034652;28;20226;-71
2024/01/29 03:05:13;;;;;;;9.27;7.07;;;;;;;1.46;100.00;99315.84;5034655;28;20208;-71
2024/01/29 03:07:39;;;;;;;10.00;7.20;;;;;;;1.37;100.00;99316.66;5034262;28;20566;-71
2024/01/29 03:10:06;;;;;;;8.93;7.17;;;;;;;1.43;100.00;99319.56;5034267;28;20669;-71
2024/01/29 03:12:32;;;;;;;9.97;7.37;;;;;;;1.35;100.00;99315.97;5034453;28;20587;-71
2024/01/29 03:14:59;;;;;;;9.10;7.40;;;;;;;1.31;100.00;99314.56;5034397;28;20229;-71
2024/01/29 03:17:25;;;;;;;7.70;6.90;;;;;;;1.24;100.00;99306.38;5034100;28;20691;-71
2024/01/29 03:19:52;;;;;;;9.27;7.27;;;;;;;1.19;100.00;99311.19;5034060;28;20665;-71
2024/01/29 03:22:18;;;;;;;8.40;6.70;;;;;;;1.18;100.00;99312.16;5033863;28;20616;-71
2024/01/29 03:24:44;;;;;;;9.33;6.80;;;;;;;1.15;100.00;99317.63;5034120;28;20208;-71
2024/01/29 03:27:11;;;;;;;9.47;6.90;;;;;;;1.11;100.00;99318.00;5034234;28;20194;-71
2024/01/29 03:29:37;;;;;;;7.83;6.03;;;;;;;1.06;100.00;99309.72;5034126;28;20209;-71
2024/01/29 03:32:04;;;;;;;8.80;7.63;;;;;;;0.98;100.00;99307.75;5034088;28;20212;-71
2024/01/29 03:34:30;;;;;;;9.37;7.10;;;;;;;0.93;100.00;99314.31;5033967;28;20225;-71
2024/01/29 03:36:56;;;;;;;9.47;6.70;;;;;;;0.90;100.00;99309.34;5033922;28;20229;-71
2024/01/29 03:39:23;;;;;;;7.53;6.53;;;;;;;0.89;100.00;99308.50;5034024;28;20209;-71
2024/01/29 03:41:49;;;;;;;8.90;7.40;;;;;;;0.83;100.00;99311.66;5033876;28;20210;-71
2024/01/29 03:44:16;;;;;;;10.23;7.10;;;;;;;0.78;100.00;99311.22;5033777;28;20230;-71
2024/01/29 03:46:43;;;;;;;8.90;7.13;;;;;;;0.77;100.00;99304.28;5033765;28;20332;-71
2024/01/29 03:49:10;;;;;;;8.70;6.53;;;;;;;0.76;100.00;99309.69;5033824;28;20209;-71
2024/01/29 03:51:36;;;;;;;9.40;7.40;;;;;;;0.71;100.00;99312.66;5033544;28;20574;-71
2024/01/29 03:54:02;;;;;;;8.07;6.90;;;;;;;0.65;100.00;99304.47;5034639;28;20575;-71
2024/01/29 03:56:29;;;;;;;9.03;6.87;;;;;;;0.64;100.00;99315.91;5033850;28;20564;-71
2024/01/29 03:58:55;;;;;;;9.93;6.50;;;;;;;0.57;100.00;99315.59;5033521;28;20580;-71
2024/01/29 04:01:28;;;;;;;8.73;7.00;;;;;;;0.55;100.00;99324.53;5033293;28;20673;-71
2024/01/29 04:03:55;;;;;;;9.27;6.50;;;;;;;0.55;100.00;99314.06;5033377;28;20221;-71
2024/01/29 04:06:22;;;;;;;8.33;6.60;;;;;;;0.55;100.00;99317.50;5033080;28;20205;-71
2024/01/29 04:08:48;;;;;;;7.70;6.63;;;;;;;0.55;100.00;99316.66;5033246;28;20205;-71
2024/01/29 04:11:15;;;;;;;9.13;6.60;;;;;;;0.45;100.00;99307.91;5032936;28;20212;-71
2024/01/29 04:13:41;;;;;;;6.70;5.93;;;;;;;0.51;100.00;99316.09;5033143;28;20337;-71
2024/01/29 04:16:11;;;;;;;7.87;6.80;;;;;;;0.57;100.00;99310.34;5033083;28;20226;-71
2024/01/29 04:18:41;;;;;;;7.67;6.60;;;;;;;0.55;100.00;99307.06;5033242;28;20202;-71
2024/01/29 04:21:07;;;;;;;9.97;7.37;;;;;;;0.58;100.00;99312.00;5033305;28;20212;-71
2024/01/29 04:23:37;;;;;;;7.87;6.83;;;;;;;0.60;100.00;99307.50;5033306;28;20228;-71
2024/01/29 04:26:04;;;;;;;8.80;6.50;;;;;;;0.59;100.00;99307.63;5032917;28;20565;-71
2024/01/29 04:28:30;;;;;;;7.63;6.53;;;;;;;0.61;100.00;99314.38;5034434;28;20552;-71
2024/01/29 04:30:56;;;;;;;9.63;7.03;;;;;;;0.59;100.00;99310.22;5033292;28;20210;-71
2024/01/29 04:33:23;;;;;;;10.80;6.97;;;;;;;0.61;100.00;99308.31;5032928;28;20221;-71
2024/01/29 04:35:49;;;;;;;10.70;6.57;;;;;;;0.57;100.00;99312.97;5032957;28;20221;-71
2024/01/29 04:38:15;;;;;;;9.67;7.10;;;;;;;0.51;100.00;99310.03;5032680;28;20210;-71
2024/01/29 04:40:42;;;;;;;9.07;6.40;;;;;;;0.60;100.00;99314.50;5033027;28;20217;-71
2024/01/29 04:43:09;;;;;;;9.90;7.17;;;;;;;0.55;100.00;99312.28;5032732;28;20713;-71
2024/01/29 04:45:35;;;;;;;9.63;6.33;;;;;;;0.55;100.00;99319.28;5033006;28;20565;-71
2024/01/29 04:48:02;;;;;;;8.87;6.30;;;;;;;0.56;100.00;99320.94;5032998;28;20228;-71
2024/01/29 04:50:28;;;;;;;10.07;7.00;;;;;;;0.55;100.00;99314.91;5033144;28;20241;-71
2024/01/29 04:52:55;;;;;;;8.80;6.67;;;;;;;0.45;100.00;99321.81;5033097;28;20222;-71
2024/01/29 04:55:22;;;;;;;10.67;7.43;;;;;;;0.51;100.00;99313.47;5032970;28;20241;-71
2024/01/29 04:57:48;;;;;;;7.67;6.37;;;;;;;0.52;100.00;99314.28;5032716;28;20202;-72
2024/01/29 05:00:15;;;;;;;7.93;6.60;;;;;;;0.52;100.00;99315.13;5032871;28;20213;-71
2024/01/29 05:02:41;;;;;;;7.70;5.80;;;;;;;0.47;100.00;99317.31;5032896;28;20237;-72
2024/01/29 05:05:08;;;;;;;9.80;7.00;;;;;;;0.50;100.00;99314.44;5032555;28;20201;-71
2024/01/29 05:07:34;;;;;;;10.83;6.40;;;;;;;0.44;100.00;99309.69;5032295;28;20669;-72
2024/01/29 05:10:01;;;;;;;10.53;6.40;;;;;;;0.47;100.00;99320.72;5033979;28;20212;-71
2024/01/29 05:12:28;;;;;;;8.87;6.50;;;;;;;0.42;100.00;99327.31;5036083;28;20230;-71
2024/01/29 05:14:55;;;;;;;9.23;6.87;;;;;;;0.44;100.00;99321.97;5036564;28;20273;-71
2024/01/29 05:17:21;;;;;;;9.03;6.73;;;;;;;0.40;100.00;99331.00;5036470;28;20575;-71
2024/01/29 05:19:48;;;;;;;9.10;6.60;;;;;;;0.47;100.00;99330.38;5036129;28;20205;-71
2024/01/29 05:22:14;;;;;;;10.27;6.90;;;;;;;0.44;100.00;99322.78;5036169;28;20225;-71
2024/01/29 05:24:41;;;;;;;7.93;6.43;;;;;;;0.42;100.00;99334.31;5036301;28;20202;-71
2024/01/29 05:27:07;;;;;;;9.63;6.50;;;;;;;0.51;100.00;99333.56;5036288;28;20209;-71
2024/01/29 05:29:34;;;;;;;7.40;6.43;;;;;;;0.56;100.00;99336.63;5036002;28;20202;-71
2024/01/29 05:32:04;;;;;;;9.13;6.67;;;;;;;0.66;100.00;99333.16;5036027;28;20673;-72
2024/01/29 05:34:34;;;;;;;8.47;6.63;;;;;;;0.66;100.00;99337.53;5035946;28;20764;-72
2024/01/29 05:37:01;;;;;;;7.80;5.97;;;;;;;0.72;100.00;99347.53;5035584;28;20248;-72
2024/01/29 05:39:32;;;;;;;10.43;6.67;;;;;;;0.83;100.00;99339.59;5035549;28;20316;-72
2024/01/29 05:42:01;;;;;;;10.33;6.47;;;;;;;0.80;100.00;99340.69;5035508;28;20194;-72
2024/01/29 05:44:28;;;;;;;8.57;6.30;;;;;;;0.79;100.00;99336.41;5035365;28;20206;-72
2024/01/29 05:46:55;;;;;;;8.77;6.10;;;;;;;0.86;100.00;99341.97;5035722;28;20224;-71
2024/01/29 05:49:22;;;;;;;10.87;6.37;;;;;;;0.83;100.00;99334.38;5035791;28;20302;-71
2024/01/29 05:51:49;;;;;;;9.60;6.20;;;;;;;0.85;100.00;99338.53;5035353;28;20206;-72
2024/01/29 05:54:18;;;;;;;11.33;5.90;;;;;;;0.88;100.00;99346.13;5035172;28;20206;-72
2024/01/29 05:56:50;;;;;;;8.53;6.57;;;;;;;0.95;100.00;99346.47;5034940;28;20585;-71
2024/01/29 05:59:18;;;;;;;6.80;5.73;;;;;;;0.95;100.00;99355.13;5035194;28;20190;-71
2024/01/29 06:01:50;;;;;;;7.03;6.20;;;;;;;0.91;100.00;99347.66;5034986;28;20228;-71
2024/01/29 06:04:20;;;;;;;8.97;6.17;;;;;;;0.92;100.00;99359.78;5034611;28;20272;-71
2024/01/29 06:06:47;;;;;;;8.90;5.70;;;;;;;0.98;100.00;99346.22;5034865;28;20209;-71
2024/01/29 06:09:19;;;;;;;7.87;5.93;;;;;;;0.92;100.00;99352.78;5035107;28;20684;-71
2024/01/29 06:11:50;;;;;;;8.77;5.80;;;;;;;0.92;100.00;99354.56;5034962;28;20665;-71
2024/01/29 06:14:21;;;;;;;7.30;5.77;;;;;;;0.91;100.00;99352.91;5034969;28;20232;-71
2024/01/29 06:16:48;;;;;;;7.93;5.93;;;;;;;0.88;100.00;99353.97;5034370;28;20249;-71
2024/01/29 06:19:17;;;;;;;6.93;5.10;;;;;;;0.90;100.00;99354.66;5035092;28;20212;-71
2024/01/29 06:21:52;;;;;;;7.03;5.87;;;;;;;0.93;100.00;99353.59;5034648;28;20289;-72
2024/01/29 06:24:18;;;;;;;6.63;5.17;;;;;;;0.92;100.00;99351.94;5034734;28;20656;-71
2024/01/29 06:26:44;;;;;;;6.70;5.80;;;;;;;0.90;100.00;99356.47;5034678;28;20210;-71
2024/01/29 06:29:11;;;;;;;11.03;6.30;;;;;;;0.90;100.00;99357.28;5034929;28;20236;-71
2024/01/29 06:31:40;;;;;;;10.33;5.87;;;;;;;0.93;100.00;99356.22;5034773;28;20210;-71
2024/01/29 06:34:07;;;;;;;7.50;5.60;;;;;;;0.90;100.00;99356.47;5034472;28;20233;-71
2024/01/29 06:36:34;;;;;;;7.07;5.80;;;;;;;0.96;100.00;99355.97;5034818;28;20313;-71
2024/01/29 06:39:02;;;;;;;8.50;6.10;;;;;;;0.87;100.00;99357.56;5035117;28;20209;-71
2024/01/29 06:41:35;;;;;;;7.17;5.80;;;;;;;0.87;100.00;99352.34;5034247;28;20213;-71
2024/01/29 06:44:09;;;;;;;8.30;5.50;;;;;;;0.86;100.00;99352.44;5034199;28;20226;-71
2024/01/29 06:46:36;;;;;;;8.40;5.90;;;;;;;0.85;100.00;99361.28;5034325;28;20186;-71
2024/01/29 06:49:11;;;;;;;8.47;5.77;;;;;;;0.86;100.00;99362.94;5034605;28;20206;-71
2024/01/29 06:51:39;;;;;;;6.70;5.60;;;;;;;0.86;100.00;99362.94;5034242;28;20248;-71
2024/01/29 06:54:15;;;;;;;8.40;5.50;;;;;;;0.84;100.00;99359.59;5033708;28;20690;-71
2024/01/29 06:56:42;;;;;;;6.80;5.43;;;;;;;0.83;100.00;99358.78;5033985;28;20241;-71
2024/01/29 06:59:17;;;;;;;7.43;5.90;;;;;;;0.91;100.00;99366.00;5033906;28;20206;-71
2024/01/29 07:01:46;;;;;;;7.63;5.60;;;;;;;0.88;100.00;99369.69;5033879;28;20362;-71
2024/01/29 07:04:16;;;;;;;9.33;5.97;;;;;;;0.86;100.00;99370.78;5033670;28;20234;-71
2024/01/29 07:06:47;;;;;;;7.43;6.00;;;;;;;0.84;100.00;99376.13;5033393;28;20733;-71
2024/01/29 07:09:18;;;;;;;8.03;6.00;;;;;;;0.81;100.00;99376.38;5033446;28;20613;-71
2024/01/29 07:11:45;;;;;;;9.33;5.80;;;;;;;0.82;100.00;99371.97;5034165;28;20208;-71
2024/01/29 07:14:18;;;;;;;7.17;5.57;;;;;;;0.87;100.00;99382.91;5033554;28;20226;-71
2024/01/29 07:16:45;;;;;;;8.47;5.90;;;;;;;0.94;100.00;99378.84;5033553;28;20711;-71
2024/01/29 07:19:17;;;;;;;9.23;6.03;;;;;;;0.98;100.00;99381.06;5033437;28;20228;-71
2024/01/29 07:21:44;;;;;;;8.07;5.47;;;;;;;1.06;100.00;99390.91;5033643;28;20194;-71
2024/01/29 07:24:10;;;;;;;7.70;5.70;;;;;;;1.17;100.00;99390.84;5033798;28;20585;-71
2024/01/29 07:26:37;;;;;;;8.87;5.53;;;;;;;1.21;100.00;99390.44;5033418;28;20674;-71
2024/01/29 07:29:03;;;;;;;6.73;5.10;;;;;;;1.28;100.00;99394.22;5033705;28;20205;-71
2024/01/29 07:31:30;;;;;;;8.70;5.63;;;;;;;1.27;100.00;99389.97;5033908;28;20202;-72
2024/01/29 07:33:57;;;;;;;10.27;6.03;;;;;;;1.36;100.00;99397.06;5033061;28;20249;-73
2024/01/29 07:36:23;;;;;;;10.23;5.90;;;;;;;1.41;100.00;99400.13;5033170;28;20232;-71
2024/01/29 07:38:50;;;;;;;10.83;6.23;;;;;;;1.50;100.00;99398.50;5033130;28;20206;-71
2024/01/29 07:41:16;;;;;;;9.53;5.73;;;;;;;1.55;100.00;99398.94;5033157;28;20206;-71
2024/01/29 07:43:43;;;;;;;9.50;5.90;;;;;;;1.63;100.00;99394.69;5032873;28;20276;-71
2024/01/29 07:46:10;;;;;;;7.63;5.43;;;;;;;1.64;100.00;99396.38;5033071;28;20209;-71
2024/01/29 07:48:36;;;;;;;7.40;5.50;;;;;;;1.67;100.00;99398.72;5033441;28;20206;-71
2024/01/29 07:51:03;;;;;;;8.47;5.60;;;;;;;1.69;100.00;99406.44;5033828;28;20205;-71
2024/01/29 07:53:29;;;;;;;10.10;5.60;;;;;;;1.75;100.00;99408.56;5033138;28;20236;-71
2024/01/29 07:55:56;;;;;;;6.67;5.27;;;;;;;1.79;100.00;99405.53;5032981;28;20210;-71
2024/01/29 07:58:22;;;;;;;7.50;5.30;;;;;;;1.83;100.00;99406.09;5033194;28;20214;-71
2024/01/29 08:00:49;;;;;;;8.50;5.77;;;;;;;1.90;100.00;99404.63;5033084;28;20561;-71
2024/01/29 08:03:15;;;;;;;6.27;5.30;;;;;;;1.97;100.00;99409.22;5033239;28;20257;-71
2024/01/29 08:05:41;;;;;;;8.13;5.67;;;;;;;2.05;100.00;99405.91;5032556;28;20673;-71
2024/01/29 08:08:08;;;;;;;7.77;5.40;;;;;;;2.09;100.00;99417.81;5032974;28;20209;-71
2024/01/29 08:10:35;;;;;;;6.93;5.40;;;;;;;2.17;100.00;99416.16;5033212;28;20220;-71
2024/01/29 08:13:02;;;;;;;7.17;5.00;;;;;;;2.22;100.00;99421.03;5032888;28;20222;-71
2024/01/29 08:15:29;;;;;;;6.83;5.40;;;;;;;2.22;100.00;99408.72;5033017;28;20286;-71
2024/01/29 08:17:56;;;;;;;7.97;5.70;;;;;;;2.25;100.00;99418.16;5032708;28;20252;-71
2024/01/29 08:20:24;;;;;;;6.57;5.30;;;;;;;2.32;100.00;99425.34;5033215;28;20213;-71
2024/01/29 08:22:49;;;;;;;6.70;4.83;;;;;;;2.42;100.00;99427.97;5033487;28;20273;-71
2024/01/29 08:25:16;;;;;;;6.70;5.33;;;;;;;2.46;100.00;99427.59;5032553;28;20214;-71
2024/01/29 08:27:42;;;;;;;7.13;4.77;;;;;;;2.45;100.00;99438.22;5032653;28;20213;-71
2024/01/29 08:30:09;;;;;;;6.00;5.37;;;;;;;2.52;100.00;99436.72;5032722;28;20695;-71
2024/01/29 08:32:35;;;;;;;8.83;5.70;;;;;;;2.53;100.00;99433.13;5032777;28;20325;-71
2024/01/29 08:35:02;;;;;;;7.03;5.00;;;;;;;2.54;100.00;99438.25;5032735;28;20202;-71
2024/01/29 08:37:28;;;;;;;6.93;5.00;;;;;;;2.63;100.00;99441.84;5032373;28;20324;-71
2024/01/29 08:39:54;;;;;;;7.50;5.10;;;;;;;2.72;100.00;99444.50;5033075;28;20210;-71
2024/01/29 08:42:21;;;;;;;6.87;5.67;;;;;;;2.75;100.00;99441.59;5032133;28;20602;-71
2024/01/29 08:44:47;;;;;;;8.70;5.37;;;;;;;2.78;100.00;99440.47;5033983;28;20259;-71
2024/01/29 08:47:14;;;;;;;7.00;5.30;;;;;;;2.78;100.00;99445.72;5036743;28;20202;-71
2024/01/29 08:49:41;;;;;;;5.90;5.30;;;;;;;2.95;100.00;99440.66;5036996;28;20304;-71
2024/01/29 08:52:08;;;;;;;5.47;4.77;;;;;;;2.90;100.00;99447.28;5036551;28;20665;-71
2024/01/29 08:54:34;;;;;;;7.27;4.90;;;;;;;2.93;100.00;99452.28;5036994;28;20570;-71
2024/01/29 08:57:00;;;;;;;7.27;5.07;;;;;;;2.90;100.00;99448.13;5036843;28;20316;-71
2024/01/29 08:59:29;;;;;;;6.07;4.97;;;;;;;2.97;100.00;99453.63;5036793;28;20248;-71
2024/01/29 09:01:57;;;;;;;5.77;4.90;;;;;;;3.00;100.00;99463.88;5036349;28;20293;-71
2024/01/29 09:04:23;;;;;;;7.57;5.20;;;;;;;3.05;100.00;99459.88;5036492;28;20206;-71
2024/01/29 09:06:50;;;;;;;6.07;4.87;;;;;;;3.11;100.00;99459.31;5036393;28;20202;-71
2024/01/29 09:09:16;;;;;;;5.57;5.03;;;;;;;3.21;100.00;99460.13;5036265;28;20206;-71
2024/01/29 09:11:43;;;;;;;5.93;5.10;;;;;;;3.26;100.00;99463.16;5036241;28;20205;-71
2024/01/29 09:14:09;;;;;;;5.63;5.03;;;;;;;3.30;100.00;99459.31;5036029;28;20252;-71
2024/01/29 09:16:35;;;;;;;8.23;5.50;;;;;;;3.68;100.00;99455.78;5037095;28;20233;-71
2024/01/29 09:19:02;;;;;;;7.47;5.07;;;;;;;3.60;100.00;99463.56;5036535;28;20212;-71
2024/01/29 09:21:30;;;;;;;7.57;5.53;;;;;;;3.68;100.00;99461.91;5035858;28;20246;-71
2024/01/29 09:23:57;;;;;;;7.60;5.27;;;;;;;3.91;100.00;99465.84;5035673;28;20317;-71
2024/01/29 09:26:23;;;;;;;8.50;6.43;;;;;;;3.83;100.00;99463.09;5035604;28;20703;-71
2024/01/29 09:28:50;;;;;;;13.60;6.40;;;;;;;3.86;100.00;99469.88;5035743;28;20209;-71
2024/01/29 09:31:16;;;;;;;7.63;5.03;;;;;;;3.84;100.00;99471.84;5035941;28;20218;-71
2024/01/29 09:33:44;;;;;;;7.73;5.70;;;;;;;3.96;100.00;99474.16;5035803;28;20236;-71
2024/01/29 09:36:10;;;;;;;7.73;5.70;;;;;;;4.09;100.00;99476.44;5035752;28;20212;-71
2024/01/29 09:38:37;;;;;;;7.07;5.43;;;;;;;4.17;100.00;99473.94;5035614;28;20232;-71
2024/01/29 09:41:05;;;;;;;6.83;5.80;;;;;;;4.25;100.00;99484.59;5035427;28;20685;-71
2024/01/29 09:43:35;;;;;;;8.67;5.90;;;;;;;4.38;100.00;99487.72;5035810;28;20226;-71
2024/01/29 09:46:04;;;;;;;7.47;5.70;;;;;;;4.51;100.00;99477.66;5035878;28;20202;-71
2024/01/29 09:48:33;;;;;;;10.77;6.17;;;;;;;4.50;100.00;99481.28;5035649;28;20687;-71
2024/01/29 09:51:01;;;;;;;7.50;6.23;;;;;;;4.68;100.00;99490.03;5034513;28;20206;-71
2024/01/29 09:53:29;;;;;;;7.77;6.40;;;;;;;4.79;100.00;99487.22;5035708;28;20233;-71
2024/01/29 09:55:56;;;;;;;9.80;6.57;;;;;;;5.03;100.00;99495.38;5035359;28;20206;-71
2024/01/29 09:58:23;;;;;;;11.27;6.90;;;;;;;4.92;100.00;99496.41;5035337;28;20268;-72
2024/01/29 10:00:50;;;;;;;9.50;5.83;;;;;;;5.06;100.00;99503.81;5035125;28;20212;-71
2024/01/29 10:03:22;;;;;;;8.10;6.53;;;;;;;5.03;100.00;99503.28;5035216;28;20228;-72
2024/01/29 10:05:51;;;;;;;7.50;5.60;;;;;;;5.34;100.00;99504.59;5035398;28;20200;-71
2024/01/29 10:08:18;;;;;;;6.20;5.43;;;;;;;5.20;100.00;99498.03;5034821;28;20543;-71
2024/01/29 10:10:45;;;;;;;7.43;5.57;;;;;;;5.28;100.00;99503.38;5035446;28;20202;-71
2024/01/29 10:13:11;;;;;;;7.63;5.90;;;;;;;5.39;100.00;99499.69;5035098;28;20229;-72
2024/01/29 10:15:38;;;;;;;9.13;5.90;;;;;;;5.45;100.00;99491.16;5034951;28;20248;-71
2024/01/29 10:18:10;;;;;;;9.33;5.80;;;;;;;5.65;100.00;99493.47;5034834;28;20248;-71
2024/01/29 10:20:37;;;;;;;7.43;5.63;;;;;;;6.00;100.00;99490.81;5034996;28;20653;-71
2024/01/29 10:23:03;;;;;;;6.47;5.17;;;;;;;6.18;100.00;99496.00;5035031;28;20565;-71
2024/01/29 10:25:32;;;;;;;7.23;5.60;;;;;;;6.09;100.00;99486.41;5034897;28;20300;-71
2024/01/29 10:28:13;;;;;;;6.77;5.27;;;;;;;6.14;100.00;99486.75;5034917;28;20198;-71
2024/01/29 10:30:42;;;;;;;7.77;5.73;;;;;;;6.38;100.00;99487.72;5034972;28;20740;-71
2024/01/29 10:33:09;;;;;;;5.77;5.00;;;;;;;6.57;100.00;99491.94;5034643;28;20244;-71
2024/01/29 10:35:36;;;;;;;8.87;5.70;;;;;;;6.38;100.00;99492.19;5034925;28;20208;-71
2024/01/29 10:38:06;;;;;;;8.90;5.77;;;;;;;6.25;100.00;99487.31;5034790;28;20280;-71
2024/01/29 10:40:33;;;;;;;6.63;5.20;;;;;;;6.27;100.00;99479.22;5034950;28;20208;-71
2024/01/29 10:43:01;;;;;;;6.93;5.67;;;;;;;6.32;100.00;99487.50;5034613;28;20248;-71
2024/01/29 10:45:28;;;;;;;9.07;5.77;;;;;;;6.43;100.00;99480.13;5034454;28;20293;-71
2024/01/29 10:48:20;;;;;;;5.97;5.30;;;;;;;6.82;100.00;99483.09;5034554;28;20205;-71
2024/01/29 10:50:47;;;;;;;5.83;4.97;;;;;;;6.67;100.00;99476.78;5034208;28;20194;-71
2024/01/29 10:53:15;;;;;;;6.87;5.83;;;;;;;6.97;100.00;99484.97;5034503;28;20226;-71
2024/01/29 10:55:44;;;;;;;7.70;5.70;;;;;;;6.91;100.00;99474.19;5034532;28;20208;-71
2024/01/29 10:58:13;;;;;;;9.17;6.07;;;;;;;6.82;100.00;99469.88;5034415;28;20233;-71
2024/01/29 11:00:42;;;;;;;9.73;6.27;;;;;;;6.84;100.00;99478.50;5034153;28;20205;-71
2024/01/29 11:03:10;;;;;;;8.73;6.40;;;;;;;7.00;100.00;99468.78;5032698;28;20236;-71
2024/01/29 11:05:38;;;;;;;11.63;6.43;;;;;;;7.26;100.00;99466.84;5034105;28;20571;-71
2024/01/29 11:08:08;;;;;;;10.27;6.00;;;;;;;7.36;100.00;99466.69;5033667;28;20202;-71
2024/01/29 11:10:37;;;;;;;10.33;6.73;;;;;;;7.10;100.00;99461.53;5035297;28;20211;-71
2024/01/29 11:13:05;;;;;;;9.60;6.10;;;;;;;7.28;100.00;99466.69;5032743;28;20230;-71
2024/01/29 11:15:32;;;;;;;8.60;5.80;;;;;;;7.23;100.00;99459.22;5033903;28;20203;-71
2024/01/29 11:17:59;;;;;;;9.70;6.47;;;;;;;7.36;100.00;99456.09;5033561;28;20568;-71
2024/01/29 11:20:26;;;;;;;10.57;5.90;;;;;;;7.33;100.00;99454.59;5033982;28;20241;-71
2024/01/29 11:22:56;;;;;;;9.10;6.77;;;;;;;7.64;100.00;99452.94;5034123;28;20224;-71
2024/01/29 11:25:23;;;;;;;10.43;6.80;;;;;;;7.74;100.00;99440.38;5033833;28;20308;-71
2024/01/29 11:27:50;;;;;;;11.43;5.97;;;;;;;7.86;100.00;99448.78;5033866;28;20210;-73
2024/01/29 11:30:22;;;;;;;7.70;6.07;;;;;;;7.74;100.00;99447.50;5033084;28;20271;-71
2024/01/29 11:32:49;;;;;;;12.07;6.00;;;;;;;7.78;100.00;99438.22;5033232;28;20708;-71